createdAt,value
2019-03-11T00:01:23.220Z,98357.77
2019-03-11T00:03:49.936Z,98355.68
2019-03-11T00:06:16.544Z,98347.75
2019-03-11T00:08:43.297Z,98355.13
2019-03-11T00:11:10.002Z,98355.35
2019-03-11T00:13:36.678Z,98342.92
2019-03-11T00:16:03.370Z,98353.11
2019-03-11T00:18:30.130Z,98356.38
2019-03-11T00:20:56.775Z,98362.77
2019-03-11T00:23:23.565Z,98362.30
2019-03-11T00:25:50.361Z,98358.16
2019-03-11T00:28:19.875Z,98363.08
2019-03-11T00:30:46.418Z,98361.16
2019-03-11T00:34:09.716Z,98373.42
2019-03-11T00:36:36.539Z,98378.09
2019-03-11T00:39:05.392Z,98385.66
2019-03-11T00:41:32.662Z,98392.59
2019-03-11T00:45:14.231Z,98405.55
2019-03-11T00:47:40.921Z,98407.55
2019-03-11T00:50:10.766Z,98421.00
2019-03-11T00:52:37.597Z,98432.09
2019-03-11T00:55:08.928Z,98437.63
2019-03-11T00:57:36.695Z,98445.00
2019-03-11T01:00:08.974Z,98443.34
2019-03-11T01:02:36.762Z,98442.69
2019-03-11T01:05:59.560Z,98468.30
2019-03-11T01:08:28.173Z,98474.80
2019-03-11T01:10:54.737Z,98465.11
2019-03-11T01:13:21.419Z,98476.59
2019-03-11T01:15:48.087Z,98476.13
2019-03-11T01:18:14.959Z,98473.83
2019-03-11T01:20:41.649Z,98490.16
2019-03-11T01:23:08.312Z,98505.48
2019-03-11T01:25:35.045Z,98524.13
2019-03-11T01:28:01.683Z,98535.61
2019-03-11T01:30:28.324Z,98559.69
2019-03-11T01:32:54.925Z,98578.14
2019-03-11T01:35:21.497Z,98581.78
2019-03-11T01:37:48.070Z,98602.00
2019-03-11T01:40:17.027Z,98630.41
2019-03-11T01:42:44.019Z,98638.73
2019-03-11T01:45:14.389Z,98658.48
2019-03-11T01:47:41.159Z,98669.88
2019-03-11T01:50:10.573Z,98685.58
2019-03-11T01:52:37.183Z,98704.15
2019-03-11T01:55:07.567Z,98721.49
2019-03-11T01:57:34.235Z,98730.58
2019-03-11T02:00:03.980Z,98740.45
2019-03-11T02:02:32.453Z,98747.00
2019-03-11T02:04:59.027Z,98766.77
2019-03-11T02:07:25.656Z,98774.67
2019-03-11T02:09:52.329Z,98788.00
2019-03-11T02:12:18.895Z,98798.33
2019-03-11T02:14:45.545Z,98797.70
2019-03-11T02:17:12.196Z,98805.36
2019-03-11T02:19:38.771Z,98828.06
2019-03-11T02:22:05.328Z,98838.39
2019-03-11T02:24:31.983Z,98846.02
2019-03-11T02:26:58.548Z,98851.62
2019-03-11T02:29:25.210Z,98868.98
2019-03-11T02:31:51.822Z,98882.59
2019-03-11T02:34:18.511Z,98900.14
2019-03-11T02:36:45.189Z,98908.98
2019-03-11T02:39:12.502Z,98937.30
2019-03-11T02:41:39.242Z,98936.73
2019-03-11T02:44:06.033Z,98948.37
2019-03-11T02:46:32.693Z,98963.26
2019-03-11T02:48:59.307Z,98980.39
2019-03-11T02:51:26.075Z,98984.44
2019-03-11T02:53:52.663Z,98991.77
2019-03-11T02:56:19.316Z,99007.08
2019-03-11T02:58:46.206Z,99015.59
2019-03-11T03:01:15.152Z,99026.97
2019-03-11T03:03:43.928Z,99032.11
2019-03-11T03:06:12.504Z,99052.40
2019-03-11T03:08:39.033Z,99067.22
2019-03-11T03:11:05.733Z,99066.68
2019-03-11T03:13:32.404Z,99077.45
2019-03-11T03:15:58.967Z,99060.41
2019-03-11T03:18:25.595Z,99077.34
2019-03-11T03:20:52.259Z,99084.88
2019-03-11T03:23:18.911Z,99105.07
2019-03-11T03:25:45.503Z,99111.99
2019-03-11T03:28:12.267Z,99123.31
2019-03-11T03:30:39.213Z,99128.36
2019-03-11T03:33:05.778Z,99136.88
2019-03-11T03:35:32.624Z,99142.48
2019-03-11T03:37:59.323Z,99145.13
2019-03-11T03:40:26.014Z,99143.28
2019-03-11T03:42:53.275Z,99154.30
2019-03-11T03:45:25.259Z,99159.01
2019-03-11T03:47:52.225Z,99168.70
2019-03-11T03:50:21.869Z,99178.76
2019-03-11T03:52:48.738Z,99181.16
2019-03-11T03:55:15.812Z,99186.27
2019-03-11T03:57:42.577Z,99199.61
2019-03-11T04:00:11.081Z,99206.73
2019-03-11T04:02:37.788Z,99216.61
2019-03-11T04:05:09.138Z,99226.23
2019-03-11T04:07:35.776Z,99228.25
2019-03-11T04:10:07.823Z,99236.23
2019-03-11T04:12:34.612Z,99239.48
2019-03-11T04:15:01.634Z,99254.87
2019-03-11T04:17:28.622Z,99259.90
2019-03-11T04:19:55.298Z,99262.98
2019-03-11T04:22:21.954Z,99267.86
2019-03-11T04:24:48.878Z,99285.19
2019-03-11T04:27:16.345Z,99290.45
2019-03-11T04:29:43.030Z,99297.53
2019-03-11T04:32:09.773Z,99309.01
2019-03-11T04:34:36.419Z,99312.52
2019-03-11T04:37:04.383Z,99309.99
2019-03-11T04:39:30.999Z,99329.25
2019-03-11T04:41:57.766Z,99329.25
2019-03-11T04:44:24.501Z,99337.89
2019-03-11T04:46:51.120Z,99342.64
2019-03-11T04:49:17.673Z,99341.36
2019-03-11T04:51:44.286Z,99348.61
2019-03-11T04:54:10.904Z,99358.19
2019-03-11T04:56:37.682Z,99369.05
2019-03-11T04:59:09.202Z,99375.47
2019-03-11T05:01:35.783Z,99377.35
2019-03-11T05:04:02.541Z,99392.86
2019-03-11T05:06:29.105Z,99383.90
2019-03-11T05:08:55.661Z,99393.66
2019-03-11T05:11:22.325Z,99392.16
2019-03-11T05:13:48.939Z,99395.33
2019-03-11T05:16:15.548Z,99402.73
2019-03-11T05:18:42.288Z,99402.42
2019-03-11T05:21:09.042Z,99410.73
2019-03-11T05:23:35.599Z,99413.84
2019-03-11T05:26:02.340Z,99425.80
2019-03-11T05:28:28.973Z,99428.51
2019-03-11T05:30:55.547Z,99437.22
2019-03-11T05:33:22.134Z,99439.61
2019-03-11T05:35:48.928Z,99444.33
2019-03-11T05:38:15.589Z,99455.16
2019-03-11T05:40:43.263Z,99459.33
2019-03-11T05:43:09.809Z,99465.50
2019-03-11T05:45:36.394Z,99472.14
2019-03-11T05:48:03.261Z,99475.17
2019-03-11T05:50:29.862Z,99484.22
2019-03-11T05:52:56.518Z,99489.23
2019-03-11T05:55:23.177Z,99484.73
2019-03-11T05:57:49.751Z,99492.53
2019-03-11T06:00:20.818Z,99497.37
2019-03-11T06:03:43.975Z,99505.87
2019-03-11T06:06:10.694Z,99506.89
2019-03-11T06:08:37.372Z,99518.13
2019-03-11T06:11:04.252Z,99517.67
2019-03-11T06:13:35.877Z,99521.05
2019-03-11T06:15:59.541Z,99525.24
2019-03-11T06:18:28.154Z,99530.48
2019-03-11T06:20:56.746Z,99533.19
2019-03-11T06:23:23.374Z,99532.49
2019-03-11T06:25:49.985Z,99539.73
2019-03-11T06:28:16.557Z,99546.93
2019-03-11T06:30:43.202Z,99556.00
2019-03-11T06:33:09.771Z,99554.60
2019-03-11T06:35:36.373Z,99557.36
2019-03-11T06:38:03.166Z,99564.08
2019-03-11T06:40:29.839Z,99571.21
2019-03-11T06:42:56.409Z,99562.43
2019-03-11T06:45:23.097Z,99565.91
2019-03-11T06:47:49.833Z,99567.66
2019-03-11T06:50:16.474Z,99568.77
2019-03-11T06:52:43.319Z,99591.60
2019-03-11T06:55:11.923Z,99584.88
2019-03-11T06:57:38.780Z,99594.31
2019-03-11T07:00:11.078Z,99602.17
2019-03-11T07:02:37.735Z,99597.19
2019-03-11T07:05:04.823Z,99607.83
2019-03-11T07:07:31.407Z,99604.11
2019-03-11T07:09:58.203Z,99613.45
2019-03-11T07:12:24.867Z,99610.30
2019-03-11T07:14:51.495Z,99629.04
2019-03-11T07:17:18.142Z,99612.44
2019-03-11T07:19:44.843Z,99630.00
2019-03-11T07:22:11.410Z,99638.01
2019-03-11T07:24:38.351Z,99626.80
2019-03-11T07:27:04.944Z,99624.99
2019-03-11T07:29:31.514Z,99640.28
2019-03-11T07:31:58.096Z,99637.02
2019-03-11T07:34:24.712Z,99639.12
2019-03-11T07:36:51.297Z,99651.02
2019-03-11T07:39:17.883Z,99635.55
2019-03-11T07:41:44.457Z,99644.70
2019-03-11T07:44:11.273Z,99646.89
2019-03-11T07:46:38.143Z,99641.49
2019-03-11T07:49:04.872Z,99644.05
2019-03-11T07:51:31.654Z,99649.53
2019-03-11T07:53:58.271Z,99654.28
2019-03-11T07:56:24.811Z,99663.77
2019-03-11T07:58:51.384Z,99672.27
2019-03-11T08:01:18.108Z,99667.81
2019-03-11T08:03:44.856Z,99669.02
2019-03-11T08:06:18.597Z,99676.89
2019-03-11T08:08:40.262Z,99687.28
2019-03-11T08:11:06.843Z,99685.44
2019-03-11T08:13:33.389Z,99688.55
2019-03-11T08:16:00.065Z,99687.41
2019-03-11T08:18:34.440Z,99706.61
2019-03-11T08:20:55.262Z,99692.52
2019-03-11T08:23:22.043Z,99701.66
2019-03-11T08:25:48.596Z,99713.57
2019-03-11T08:28:34.937Z,99718.27
2019-03-11T08:31:01.584Z,99723.42
2019-03-11T08:33:28.142Z,99723.80
2019-03-11T08:35:54.770Z,99735.11
2019-03-11T08:38:21.607Z,99736.35
2019-03-11T08:40:48.272Z,99735.36
2019-03-11T08:43:15.080Z,99734.45
2019-03-11T08:45:41.759Z,99734.09
2019-03-11T08:48:08.298Z,99743.01
2019-03-11T08:50:35.004Z,99759.97
2019-03-11T08:53:01.564Z,99741.27
2019-03-11T08:55:28.314Z,99745.52
2019-03-11T08:57:54.983Z,99742.95
2019-03-11T09:00:23.367Z,99739.63
2019-03-11T09:02:53.011Z,99747.87
2019-03-11T09:05:19.753Z,99752.49
2019-03-11T09:07:46.767Z,99744.20
2019-03-11T09:10:15.571Z,99744.95
2019-03-11T09:12:42.226Z,99753.55
2019-03-11T09:15:13.681Z,99761.98
2019-03-11T09:17:40.449Z,99765.08
2019-03-11T09:20:11.034Z,99770.44
2019-03-11T09:22:37.704Z,99771.38
2019-03-11T09:25:10.082Z,99774.16
2019-03-11T09:27:36.705Z,99772.44
2019-03-11T09:30:09.145Z,99780.27
2019-03-11T09:32:36.695Z,99776.56
2019-03-11T09:35:04.665Z,99781.77
2019-03-11T09:37:31.425Z,99795.19
2019-03-11T09:40:00.436Z,99774.02
2019-03-11T09:42:26.708Z,99780.42
2019-03-11T09:44:53.661Z,99776.35
2019-03-11T09:47:20.430Z,99776.40
2019-03-11T09:49:47.113Z,99772.48
2019-03-11T09:52:13.964Z,99760.48
2019-03-11T09:54:40.653Z,99776.61
2019-03-11T09:57:07.276Z,99769.31
2019-03-11T09:59:33.878Z,99775.55
2019-03-11T10:02:00.617Z,99783.88
2019-03-11T10:04:27.266Z,99791.25
2019-03-11T10:06:53.960Z,99791.13
2019-03-11T10:09:20.670Z,99785.86
2019-03-11T10:11:47.350Z,99779.91
2019-03-11T10:14:14.304Z,99778.62
2019-03-11T10:16:40.904Z,99777.12
2019-03-11T10:19:07.486Z,99781.91
2019-03-11T10:21:34.037Z,99783.59
2019-03-11T10:24:00.625Z,99799.56
2019-03-11T10:26:27.638Z,99792.91
2019-03-11T10:28:55.617Z,99798.27
2019-03-11T10:31:22.189Z,99802.99
2019-03-11T10:33:48.775Z,99791.95
2019-03-11T10:37:11.852Z,99792.48
2019-03-11T10:39:38.468Z,99794.28
2019-03-11T10:42:05.183Z,99796.58
2019-03-11T10:44:31.762Z,99795.66
2019-03-11T10:46:58.407Z,99790.04
2019-03-11T10:49:24.977Z,99788.41
2019-03-11T10:51:51.762Z,99798.80
2019-03-11T10:54:18.382Z,99801.31
2019-03-11T10:56:44.965Z,99800.79
2019-03-11T10:59:11.727Z,99793.22
2019-03-11T11:01:38.315Z,99791.60
2019-03-11T11:05:01.507Z,99788.45
2019-03-11T11:07:28.187Z,99786.35
2019-03-11T11:09:54.866Z,99781.16
2019-03-11T11:12:21.430Z,99786.70
2019-03-11T11:14:48.083Z,99771.68
2019-03-11T11:17:14.833Z,99794.98
2019-03-11T11:19:42.390Z,99778.33
2019-03-11T11:22:09.443Z,99799.41
2019-03-11T11:24:36.130Z,99802.48
2019-03-11T11:27:04.740Z,99793.67
2019-03-11T11:29:31.470Z,99788.36
2019-03-11T11:31:58.140Z,99780.98
2019-03-11T11:34:24.780Z,99785.32
2019-03-11T11:36:51.399Z,99774.98
2019-03-11T11:39:18.050Z,99768.42
2019-03-11T11:41:44.619Z,99771.27
2019-03-11T11:44:12.097Z,99763.05
2019-03-11T11:46:38.704Z,99762.87
2019-03-11T11:49:06.238Z,99768.38
2019-03-11T11:51:34.216Z,99767.73
2019-03-11T11:54:01.046Z,99777.88
2019-03-11T11:56:27.747Z,99755.27
2019-03-11T11:58:54.547Z,99770.48
2019-03-11T12:01:21.425Z,99762.11
2019-03-11T12:03:50.107Z,99756.63
2019-03-11T12:06:16.684Z,99766.86
2019-03-11T12:08:43.409Z,99752.17
2019-03-11T12:11:10.083Z,99769.73
2019-03-11T12:13:36.947Z,99773.33
2019-03-11T12:16:03.810Z,99774.97
2019-03-11T12:18:30.366Z,99771.34
2019-03-11T12:20:57.001Z,99773.37
2019-03-11T12:23:23.592Z,99768.78
2019-03-11T12:25:50.346Z,99772.02
2019-03-11T12:28:17.129Z,99763.42
2019-03-11T12:30:43.846Z,99772.84
2019-03-11T12:33:10.675Z,99776.91
2019-03-11T12:35:37.356Z,99776.14
2019-03-11T12:38:04.214Z,99778.42
2019-03-11T12:40:30.984Z,99773.47
2019-03-11T12:42:57.682Z,99768.77
2019-03-11T12:45:27.845Z,99765.13
2019-03-11T12:47:57.822Z,99757.81
2019-03-11T12:50:30.767Z,99756.64
2019-03-11T12:52:59.073Z,99758.44
2019-03-11T12:55:26.669Z,99744.84
2019-03-11T12:57:55.411Z,99750.12
2019-03-11T13:00:24.158Z,99755.27
2019-03-11T13:02:51.283Z,99755.56
2019-03-11T13:05:20.350Z,99754.11
2019-03-11T13:07:47.757Z,99745.21
2019-03-11T13:10:19.416Z,99757.58
2019-03-11T13:12:46.378Z,99751.90
2019-03-11T13:15:14.800Z,99745.90
2019-03-11T13:17:41.605Z,99754.94
2019-03-11T13:20:13.906Z,99756.30
2019-03-11T13:22:40.483Z,99756.85
2019-03-11T13:25:08.568Z,99757.67
2019-03-11T13:27:35.379Z,99756.25
2019-03-11T13:30:06.503Z,99755.84
2019-03-11T13:32:33.789Z,99761.72
2019-03-11T13:35:00.514Z,99755.06
2019-03-11T13:37:27.344Z,99759.11
2019-03-11T13:39:54.111Z,99752.13
2019-03-11T13:42:21.019Z,99763.42
2019-03-11T13:44:47.660Z,99753.92
2019-03-11T13:47:14.262Z,99753.00
2019-03-11T13:49:40.822Z,99760.89
2019-03-11T13:52:07.597Z,99757.39
2019-03-11T13:54:34.181Z,99763.25
2019-03-11T13:57:01.032Z,99761.01
2019-03-11T13:59:27.768Z,99751.81
2019-03-11T14:01:54.412Z,99755.34
2019-03-11T14:04:21.244Z,99751.28
2019-03-11T14:06:48.001Z,99760.08
2019-03-11T14:09:14.623Z,99750.44
2019-03-11T14:11:41.541Z,99746.73
2019-03-11T14:14:09.315Z,99742.61
2019-03-11T14:16:35.958Z,99745.51
2019-03-11T14:19:02.903Z,99746.53
2019-03-11T14:21:29.585Z,99750.24
2019-03-11T14:23:56.188Z,99752.67
2019-03-11T14:26:22.868Z,99755.48
2019-03-11T14:28:49.459Z,99766.16
2019-03-11T14:31:16.019Z,99760.13
2019-03-11T14:33:42.591Z,99768.36
2019-03-11T14:36:09.160Z,99761.01
2019-03-11T14:38:35.726Z,99766.59
2019-03-11T14:41:02.738Z,99769.89
2019-03-11T14:43:29.638Z,99771.27
2019-03-11T14:45:56.441Z,99781.66
2019-03-11T14:48:23.199Z,99798.03
2019-03-11T14:50:49.863Z,99795.13
2019-03-11T14:53:16.462Z,99801.98
2019-03-11T14:55:43.256Z,99802.02
2019-03-11T14:58:09.790Z,99807.41
2019-03-11T15:00:36.489Z,99808.27
2019-03-11T15:03:03.181Z,99808.50
2019-03-11T15:05:29.912Z,99815.81
2019-03-11T15:07:56.616Z,99807.84
2019-03-11T15:10:23.419Z,99798.23
2019-03-11T15:12:50.022Z,99800.17
2019-03-11T15:15:22.007Z,99799.81
2019-03-11T15:17:48.835Z,99801.54
2019-03-11T15:20:15.834Z,99795.94
2019-03-11T15:22:42.750Z,99803.73
2019-03-11T15:25:11.894Z,99805.44
2019-03-11T15:27:39.185Z,99802.94
2019-03-11T15:30:12.180Z,99805.09
2019-03-11T15:32:38.955Z,99807.47
2019-03-11T15:35:08.132Z,99807.29
2019-03-11T15:37:35.114Z,99803.70
2019-03-11T15:40:03.353Z,99803.17
2019-03-11T15:42:31.268Z,99809.89
2019-03-11T15:44:58.003Z,99806.86
2019-03-11T15:47:24.800Z,99820.95
2019-03-11T15:49:51.399Z,99817.34
2019-03-11T15:52:18.206Z,99817.44
2019-03-11T15:54:44.813Z,99816.12
2019-03-11T15:57:11.418Z,99815.72
2019-03-11T15:59:38.073Z,99817.80
2019-03-11T16:02:05.221Z,99819.30
2019-03-11T16:04:31.755Z,99815.61
2019-03-11T16:06:58.407Z,99817.13
2019-03-11T16:09:24.981Z,99820.70
2019-03-11T16:11:51.837Z,99830.17
2019-03-11T16:14:18.738Z,99824.21
2019-03-11T16:16:47.247Z,99828.59
2019-03-11T16:19:14.428Z,99828.19
2019-03-11T16:21:41.266Z,99826.47
2019-03-11T16:24:08.002Z,99835.81
2019-03-11T16:26:34.739Z,99840.20
2019-03-11T16:29:01.563Z,99838.64
2019-03-11T16:31:28.223Z,99839.09
2019-03-11T16:34:50.981Z,99841.50
2019-03-11T16:37:17.813Z,99845.52
2019-03-11T16:39:44.519Z,99851.45
2019-03-11T16:42:11.104Z,99853.23
2019-03-11T16:44:37.817Z,99854.11
2019-03-11T16:47:04.562Z,99856.37
2019-03-11T16:49:31.199Z,99862.13
2019-03-11T16:51:57.798Z,99862.25
2019-03-11T16:54:24.786Z,99866.38
2019-03-11T16:56:51.488Z,99872.63
2019-03-11T16:59:18.176Z,99886.30
2019-03-11T17:01:45.082Z,99889.30
2019-03-11T17:04:11.866Z,99889.23
2019-03-11T17:06:38.770Z,99895.71
2019-03-11T17:09:08.301Z,99901.46
2019-03-11T17:11:36.968Z,99906.83
2019-03-11T17:14:04.285Z,99914.19
2019-03-11T17:16:30.959Z,99913.30
2019-03-11T17:18:57.617Z,99904.95
2019-03-11T17:21:25.086Z,99922.75
2019-03-11T17:23:51.910Z,99915.03
2019-03-11T17:26:20.481Z,99917.80
2019-03-11T17:28:47.499Z,99926.88
2019-03-11T17:31:14.663Z,99935.12
2019-03-11T17:33:41.692Z,99939.94
2019-03-11T17:36:08.846Z,99942.63
2019-03-11T17:38:39.002Z,99945.25
2019-03-11T17:41:05.861Z,99944.61
2019-03-11T17:43:32.645Z,99945.72
2019-03-11T17:45:59.536Z,99952.56
2019-03-11T17:48:26.468Z,99956.36
2019-03-11T17:50:53.391Z,99959.67
2019-03-11T17:53:22.270Z,99963.48
2019-03-11T17:55:50.210Z,99959.53
2019-03-11T17:58:16.956Z,99974.30
2019-03-11T18:00:54.865Z,99969.22
2019-03-11T18:03:14.352Z,99970.91
2019-03-11T18:05:42.452Z,99975.56
2019-03-11T18:08:09.532Z,99978.36
2019-03-11T18:10:36.352Z,99976.63
2019-03-11T18:13:03.433Z,99976.72
2019-03-11T18:15:30.419Z,99975.17
2019-03-11T18:17:57.474Z,99979.67
2019-03-11T18:20:24.526Z,99982.12
2019-03-11T18:22:51.619Z,99983.00
2019-03-11T18:25:20.054Z,99992.17
2019-03-11T18:27:47.707Z,99990.37
2019-03-11T18:30:19.510Z,99997.11
2019-03-11T18:32:49.457Z,99995.47
2019-03-11T18:35:16.803Z,100008.61
2019-03-11T18:37:43.643Z,100000.88
2019-03-11T18:40:13.977Z,100008.90
2019-03-11T18:42:44.051Z,100008.61
2019-03-11T18:45:12.827Z,100004.12
2019-03-11T18:47:39.859Z,100006.13
2019-03-11T18:50:12.254Z,100008.36
2019-03-11T18:52:41.853Z,100004.16
2019-03-11T18:55:09.473Z,100007.80
2019-03-11T18:57:36.534Z,100012.66
2019-03-11T19:00:11.179Z,100012.73
2019-03-11T19:02:41.032Z,100017.53
2019-03-11T19:05:12.365Z,100014.45
2019-03-11T19:07:39.570Z,100018.20
2019-03-11T19:10:11.122Z,100025.94
2019-03-11T19:12:38.103Z,100026.06
2019-03-11T19:15:10.721Z,100014.38
2019-03-11T19:17:41.917Z,100026.78
2019-03-11T19:20:13.208Z,100030.18
2019-03-11T19:22:40.260Z,100030.39
2019-03-11T19:25:07.897Z,100035.91
2019-03-11T19:27:35.072Z,100041.08
2019-03-11T19:30:08.639Z,100042.98
2019-03-11T19:32:35.620Z,100039.94
2019-03-11T19:35:05.666Z,100050.21
2019-03-11T19:37:33.926Z,100047.61
2019-03-11T19:40:03.437Z,100055.80
2019-03-11T19:42:31.142Z,100056.73
2019-03-11T19:44:58.063Z,100051.74
2019-03-11T19:47:28.075Z,100054.43
2019-03-11T19:49:59.599Z,100061.75
2019-03-11T19:52:26.724Z,100064.50
2019-03-11T19:54:56.651Z,100062.48
2019-03-11T19:57:24.789Z,100066.23
2019-03-11T19:59:54.770Z,100063.20
2019-03-11T20:02:24.484Z,100063.92
2019-03-11T20:04:51.677Z,100065.08
2019-03-11T20:07:57.379Z,100059.75
2019-03-11T20:10:24.408Z,100070.33
2019-03-11T20:12:51.431Z,100068.11
2019-03-11T20:15:26.115Z,100060.75
2019-03-11T20:17:57.801Z,100068.14
2019-03-11T20:20:36.944Z,100070.05
2019-03-11T20:23:10.682Z,100072.66
2019-03-11T20:25:50.815Z,100079.69
2019-03-11T20:28:30.477Z,100081.09
2019-03-11T20:31:15.144Z,100084.69
2019-03-11T20:34:00.606Z,100087.31
2019-03-11T20:36:43.821Z,100095.18
2019-03-11T20:39:14.861Z,100094.30
2019-03-11T20:41:45.847Z,100101.37
2019-03-11T20:44:15.131Z,100099.88
2019-03-11T20:46:42.369Z,100100.25
2019-03-11T20:49:09.488Z,100101.68
2019-03-11T20:51:37.593Z,100107.55
2019-03-11T20:54:04.739Z,100106.78
2019-03-11T20:56:32.033Z,100110.42
2019-03-11T20:58:58.800Z,100114.59
2019-03-11T21:01:25.834Z,100112.77
2019-03-11T21:03:53.101Z,100114.21
2019-03-11T21:06:20.484Z,100116.02
2019-03-11T21:08:52.009Z,100115.05
2019-03-11T21:11:18.832Z,100117.79
2019-03-11T21:14:42.108Z,100110.92
2019-03-11T21:17:09.716Z,100115.30
2019-03-11T21:19:39.882Z,100117.36
2019-03-11T21:22:06.659Z,100117.00
2019-03-11T21:25:29.949Z,100124.14
2019-03-11T21:27:56.596Z,100126.02
2019-03-11T21:30:25.436Z,100133.19
2019-03-11T21:32:56.175Z,100140.16
2019-03-11T21:35:23.271Z,100141.78
2019-03-11T21:37:50.206Z,100142.80
2019-03-11T21:40:21.312Z,100152.45
2019-03-11T21:42:48.341Z,100151.75
2019-03-11T21:45:35.185Z,100151.19
2019-03-11T21:48:01.910Z,100153.09
2019-03-11T21:50:29.062Z,100146.69
2019-03-11T21:52:57.989Z,100156.86
2019-03-11T21:55:24.855Z,100151.92
2019-03-11T21:57:51.555Z,100144.92
2019-03-11T22:00:32.848Z,100153.66
2019-03-11T22:02:52.495Z,100150.20
2019-03-11T22:05:20.487Z,100154.56
2019-03-11T22:07:47.261Z,100155.97
2019-03-11T22:10:16.549Z,100152.69
2019-03-11T22:12:43.529Z,100160.88
2019-03-11T22:15:17.418Z,100161.70
2019-03-11T22:17:45.318Z,100164.28
2019-03-11T22:20:14.684Z,100163.92
2019-03-11T22:22:41.358Z,100162.73
2019-03-11T22:25:12.457Z,100165.38
2019-03-11T22:27:39.230Z,100166.85
2019-03-11T22:30:11.772Z,100167.07
2019-03-11T22:32:38.381Z,100166.00
2019-03-11T22:35:12.762Z,100164.25
2019-03-11T22:37:34.029Z,100158.80
2019-03-11T22:40:00.722Z,100169.36
2019-03-11T22:42:27.455Z,100163.83
2019-03-11T22:44:54.176Z,100172.14
2019-03-11T22:47:20.814Z,100172.48
2019-03-11T22:49:47.486Z,100173.44
2019-03-11T22:52:14.602Z,100178.87
2019-03-11T22:54:41.212Z,100177.95
2019-03-11T22:57:09.718Z,100175.52
2019-03-11T22:59:36.287Z,100184.19
2019-03-11T23:02:04.436Z,100179.82
2019-03-11T23:04:32.120Z,100185.09
2019-03-11T23:06:58.813Z,100179.44
2019-03-11T23:09:25.664Z,100182.53
2019-03-11T23:11:55.505Z,100184.68
2019-03-11T23:14:22.176Z,100184.14
2019-03-11T23:16:48.878Z,100185.66
2019-03-11T23:19:15.696Z,100180.13
2019-03-11T23:21:42.244Z,100178.20
2019-03-11T23:24:08.903Z,100182.24
2019-03-11T23:26:35.554Z,100187.25
2019-03-11T23:29:02.428Z,100183.80
2019-03-11T23:31:29.062Z,100193.06
2019-03-11T23:33:55.786Z,100191.47
2019-03-11T23:36:22.418Z,100195.39
2019-03-11T23:38:49.194Z,100197.18
2019-03-11T23:41:16.198Z,100203.63
2019-03-11T23:43:42.733Z,100199.86
2019-03-11T23:46:09.342Z,100211.59
2019-03-11T23:48:35.913Z,100208.20
2019-03-11T23:51:02.593Z,100210.98
2019-03-11T23:53:29.227Z,100207.61
2019-03-11T23:55:56.130Z,100210.46
2019-03-11T23:58:22.712Z,100214.08
